Time;durP1;ratioP1;P1;durP2;ratioP2;P2;SDS_P1;SDS_P2;PMS_P1;PMS_P2;Temp;Humidity;BMP_temperature;BMP_pressure;BME280_temperature;BME280_humidity;BME280_pressure;Samples;Min_cycle;Max_cycle;Signal;HPM_P1;HPM_P2
2021/03/21 00:00:49;;;;;;;1.45;1.08;;;21.20;29.40;;;;;;5004388;28;20501;-59
2021/03/21 00:03:17;;;;;;;2.13;1.10;;;21.20;29.40;;;;;;5011609;28;20528;-59
2021/03/21 00:05:43;;;;;;;1.77;1.10;;;21.20;29.30;;;;;;5011395;28;20415;-59
2021/03/21 00:08:19;;;;;;;1.40;1.00;;;21.20;29.30;;;;;;5011124;28;20389;-59
2021/03/21 00:10:49;;;;;;;2.00;1.00;;;21.20;29.30;;;;;;5011641;28;20425;-59
2021/03/21 00:13:17;;;;;;;1.70;1.00;;;21.20;29.30;;;;;;5011508;28;20388;-59
2021/03/21 00:15:43;;;;;;;1.80;1.10;;;21.20;29.20;;;;;;5009897;28;20865;-59
2021/03/21 00:18:09;;;;;;;1.60;0.95;;;21.20;29.20;;;;;;4991338;28;20624;-59
2021/03/21 00:20:36;;;;;;;2.57;1.10;;;21.20;29.20;;;;;;5006875;28;20426;-59
2021/03/21 00:23:03;;;;;;;1.60;1.00;;;21.20;29.20;;;;;;5011214;28;20401;-59
2021/03/21 00:25:31;;;;;;;1.35;1.00;;;21.10;29.60;;;;;;5009958;28;20405;-59
2021/03/21 00:27:58;;;;;;;1.58;1.00;;;21.20;29.20;;;;;;5004129;28;20396;-59
2021/03/21 00:30:28;;;;;;;1.13;0.85;;;21.20;29.10;;;;;;4992103;28;20413;-59
2021/03/21 00:32:54;;;;;;;1.40;0.90;;;21.10;29.10;;;;;;4991608;28;20899;-59
2021/03/21 00:35:20;;;;;;;1.30;0.90;;;21.20;29.10;;;;;;4991776;28;20407;-59
2021/03/21 00:37:46;;;;;;;1.95;1.00;;;21.10;29.10;;;;;;4991842;28;20732;-59
2021/03/21 00:40:17;;;;;;;1.50;1.00;;;21.10;29.10;;;;;;4999140;28;20422;-59
2021/03/21 00:42:43;;;;;;;1.00;0.80;;;21.10;29.10;;;;;;4991655;28;20387;-58
2021/03/21 00:45:10;;;;;;;1.40;1.00;;;21.10;29.10;;;;;;4992063;28;20803;-58
2021/03/21 00:47:36;;;;;;;1.52;0.80;;;21.10;29.00;;;;;;4991843;28;20709;-59
2021/03/21 00:50:06;;;;;;;1.38;0.90;;;21.10;29.00;;;;;;5008985;28;20508;-59
2021/03/21 00:52:32;;;;;;;1.40;1.02;;;21.10;29.00;;;;;;5011069;28;20911;-59
2021/03/21 00:54:57;;;;;;;1.40;1.03;;;21.10;29.00;;;;;;5009704;28;20405;-59
2021/03/21 00:57:23;;;;;;;1.58;0.98;;;21.10;29.00;;;;;;5010859;28;20400;-59
2021/03/21 00:59:49;;;;;;;1.90;0.97;;;21.10;29.00;;;;;;5010791;28;20401;-58
2021/03/21 01:02:14;;;;;;;1.77;0.80;;;21.00;29.00;;;;;;5010775;28;20413;-59
2021/03/21 01:04:40;;;;;;;1.48;0.90;;;20.90;29.70;;;;;;4991752;28;20399;-58
2021/03/21 01:07:05;;;;;;;1.40;1.00;;;20.90;29.30;;;;;;5006644;28;20398;-59
2021/03/21 01:09:31;;;;;;;1.45;0.90;;;20.90;29.40;;;;;;4992042;28;20390;-59
2021/03/21 01:11:57;;;;;;;1.35;0.85;;;20.80;29.40;;;;;;4991833;28;20406;-58
2021/03/21 01:14:22;;;;;;;1.17;0.83;;;20.80;29.40;;;;;;5009995;28;20909;-59
2021/03/21 01:16:50;;;;;;;1.50;1.00;;;20.70;29.40;;;;;;4995121;28;20810;-58
2021/03/21 01:19:20;;;;;;;1.40;0.90;;;20.70;29.40;;;;;;4994793;28;20402;-58
2021/03/21 01:21:46;;;;;;;1.17;0.93;;;20.60;29.40;;;;;;4994929;28;20452;-60
2021/03/21 01:24:19;;;;;;;1.40;0.95;;;20.60;29.60;;;;;;4993854;28;20402;-60
2021/03/21 01:26:44;;;;;;;1.05;0.80;;;20.60;29.60;;;;;;5012783;28;20413;-59
2021/03/21 01:29:10;;;;;;;1.27;0.83;;;20.50;29.60;;;;;;4993504;28;20882;-59
2021/03/21 01:31:36;;;;;;;1.33;1.00;;;20.50;29.60;;;;;;4994543;28;20506;-59
2021/03/21 01:34:02;;;;;;;1.52;0.90;;;20.50;29.60;;;;;;4994384;28;20767;-59
2021/03/21 01:36:32;;;;;;;1.98;1.13;;;20.40;29.70;;;;;;4994537;28;20403;-58
2021/03/21 01:39:02;;;;;;;1.13;0.82;;;20.40;29.60;;;;;;4994746;28;20474;-58
2021/03/21 01:41:31;;;;;;;1.50;0.90;;;20.40;29.60;;;;;;4994371;28;20898;-58
2021/03/21 01:43:58;;;;;;;1.60;0.90;;;20.30;29.60;;;;;;4993966;28;20445;-59
2021/03/21 01:47:03;;;;;;;1.30;0.90;;;20.30;29.50;;;;;;5000637;28;20868;-58
2021/03/21 01:49:34;;;;;;;2.00;1.00;;;20.40;29.50;;;;;;4975295;28;20403;-59
2021/03/21 01:52:02;;;;;;;1.17;0.90;;;20.40;29.40;;;;;;4994035;28;20453;-58
2021/03/21 01:54:27;;;;;;;1.13;0.85;;;20.40;29.30;;;;;;4994295;28;20386;-59
2021/03/21 01:56:56;;;;;;;0.90;0.70;;;20.40;29.20;;;;;;4994267;28;20879;-59
2021/03/21 01:59:28;;;;;;;1.05;0.88;;;20.40;29.10;;;;;;4994073;28;20398;-59
2021/03/21 02:02:00;;;;;;;1.00;0.80;;;20.50;29.10;;;;;;4994257;28;20430;-58
2021/03/21 02:04:27;;;;;;;1.33;0.80;;;20.50;29.10;;;;;;4997604;28;20397;-59
2021/03/21 02:07:14;;;;;;;1.17;0.80;;;20.50;29.10;;;;;;4995491;28;20464;-59
2021/03/21 02:09:58;;;;;;;1.30;0.90;;;20.50;29.00;;;;;;4993944;28;20391;-59
2021/03/21 02:12:30;;;;;;;1.00;0.90;;;20.50;28.90;;;;;;4993948;28;20481;-60
2021/03/21 02:15:14;;;;;;;1.40;0.90;;;20.50;28.90;;;;;;4994007;28;20522;-58
2021/03/21 02:17:47;;;;;;;1.17;0.80;;;20.50;28.90;;;;;;4993801;28;20402;-59
2021/03/21 02:20:26;;;;;;;1.35;0.88;;;20.50;28.80;;;;;;4993291;28;20446;-58
2021/03/21 02:22:54;;;;;;;1.00;0.80;;;20.50;28.80;;;;;;4993873;28;20405;-58
2021/03/21 02:25:45;;;;;;;1.30;0.80;;;20.50;28.70;;;;;;5005673;28;20409;-59
2021/03/21 02:28:28;;;;;;;1.02;0.75;;;20.50;28.70;;;;;;5011042;28;20499;-59
2021/03/21 02:31:04;;;;;;;0.98;0.77;;;20.50;28.70;;;;;;5013218;28;20400;-58
2021/03/21 02:33:51;;;;;;;1.25;0.88;;;20.50;28.70;;;;;;5012915;28;21035;-59
2021/03/21 02:36:25;;;;;;;1.23;0.93;;;20.50;28.70;;;;;;5012156;28;20405;-58
2021/03/21 02:39:01;;;;;;;1.40;0.98;;;20.50;28.60;;;;;;5013079;28;20388;-59
2021/03/21 02:41:35;;;;;;;1.13;0.70;;;20.50;28.70;;;;;;5012940;28;20470;-60
2021/03/21 02:44:07;;;;;;;1.20;0.80;;;20.50;28.60;;;;;;5002052;28;20413;-59
2021/03/21 02:46:40;;;;;;;1.00;0.70;;;20.40;28.60;;;;;;4994314;28;20917;-59
2021/03/21 02:49:25;;;;;;;1.20;0.90;;;20.50;28.60;;;;;;4993391;28;20394;-59
2021/03/21 02:52:07;;;;;;;1.27;0.90;;;20.40;28.70;;;;;;4993216;28;20751;-59
2021/03/21 02:54:37;;;;;;;1.50;0.80;;;20.40;28.60;;;;;;5001647;28;20401;-59
2021/03/21 02:57:08;;;;;;;1.20;0.70;;;20.40;28.70;;;;;;5012883;28;20852;-58
2021/03/21 02:59:37;;;;;;;1.05;0.70;;;20.40;28.80;;;;;;5012549;28;20413;-58
2021/03/21 03:02:11;;;;;;;1.30;0.80;;;20.30;28.80;;;;;;5009935;28;20401;-58
2021/03/21 03:04:52;;;;;;;1.27;0.80;;;20.20;29.30;;;;;;4994700;28;20422;-58
2021/03/21 03:07:28;;;;;;;1.08;0.70;;;20.20;28.90;;;;;;4992945;28;20379;-58
2021/03/21 03:10:00;;;;;;;1.27;0.90;;;20.20;28.90;;;;;;4992927;28;20422;-58
2021/03/21 03:12:32;;;;;;;1.30;0.70;;;20.10;29.00;;;;;;4992617;28;20883;-58
2021/03/21 03:14:58;;;;;;;1.20;0.70;;;20.10;29.00;;;;;;4991593;28;20911;-58
2021/03/21 03:17:38;;;;;;;1.30;0.90;;;20.00;29.00;;;;;;4992716;28;20426;-58
2021/03/21 03:20:15;;;;;;;1.20;0.80;;;20.00;29.00;;;;;;4992204;28;20453;-58
2021/03/21 03:23:00;;;;;;;1.17;0.77;;;20.00;29.10;;;;;;4992667;28;20391;-58
2021/03/21 03:25:39;;;;;;;1.00;0.77;;;19.90;29.10;;;;;;4992626;28;20398;-58
2021/03/21 03:28:25;;;;;;;1.30;0.80;;;19.90;29.00;;;;;;4992219;28;20464;-58
2021/03/21 03:30:56;;;;;;;1.60;1.13;;;19.80;29.10;;;;;;4992602;28;20394;-58
2021/03/21 03:33:23;;;;;;;1.42;1.08;;;19.70;27.60;;;;;;4992518;28;20810;-58
2021/03/21 03:35:49;;;;;;;1.27;1.00;;;19.60;27.70;;;;;;5011051;28;20462;-58
2021/03/21 03:38:17;;;;;;;1.20;0.90;;;19.60;27.60;;;;;;5011657;28;20381;-58
2021/03/21 03:40:45;;;;;;;1.17;0.80;;;19.60;28.30;;;;;;5011964;28;20515;-58
2021/03/21 03:43:30;;;;;;;1.42;0.80;;;19.60;29.20;;;;;;5012046;28;20480;-58
2021/03/21 03:46:19;;;;;;;1.40;1.00;;;19.60;29.50;;;;;;5006942;28;20399;-58
2021/03/21 03:48:47;;;;;;;2.42;1.10;;;19.60;29.80;;;;;;4992257;28;20974;-58
2021/03/21 03:51:27;;;;;;;1.20;0.90;;;19.60;29.70;;;;;;4992217;28;20406;-58
2021/03/21 03:54:24;;;;;;;0.95;0.73;;;19.60;29.90;;;;;;4992261;28;20397;-58
2021/03/21 03:57:11;;;;;;;1.20;0.82;;;19.50;29.30;;;;;;4992246;28;20875;-58
2021/03/21 03:59:51;;;;;;;1.58;0.95;;;19.50;29.20;;;;;;4992063;28;20446;-58
2021/03/21 04:02:28;;;;;;;1.80;1.00;;;19.50;29.10;;;;;;4991704;28;20405;-58
2021/03/21 04:05:01;;;;;;;1.73;1.40;;;19.50;28.70;;;;;;5003996;28;20428;-58
2021/03/21 04:07:38;;;;;;;1.60;1.20;;;19.30;26.10;;;;;;5011683;28;20393;-58
2021/03/21 04:10:19;;;;;;;1.30;1.10;;;19.20;28.20;;;;;;5008184;28;20398;-58
2021/03/21 04:13:06;;;;;;;1.48;1.10;;;19.20;29.20;;;;;;4992043;28;20398;-58
2021/03/21 04:15:41;;;;;;;1.55;1.00;;;19.20;29.60;;;;;;4991996;28;20497;-58
2021/03/21 04:18:44;;;;;;;1.27;0.90;;;19.20;29.80;;;;;;4991546;28;20382;-58
2021/03/21 04:21:16;;;;;;;1.13;0.98;;;19.20;30.00;;;;;;4982890;28;20426;-58
2021/03/21 04:23:51;;;;;;;1.60;0.90;;;19.20;30.60;;;;;;4990661;28;20473;-58
2021/03/21 04:26:23;;;;;;;1.30;0.90;;;19.10;31.20;;;;;;4991521;28;20393;-58
2021/03/21 04:28:56;;;;;;;0.93;0.70;;;19.20;31.10;;;;;;4990713;28;20395;-58
2021/03/21 04:31:22;;;;;;;1.10;0.90;;;19.20;30.00;;;;;;4990478;28;20399;-58
2021/03/21 04:33:52;;;;;;;0.90;0.70;;;19.20;29.40;;;;;;4995304;28;20412;-58
2021/03/21 04:36:23;;;;;;;1.23;0.90;;;19.30;29.30;;;;;;4995504;28;20405;-58
2021/03/21 04:38:58;;;;;;;1.80;1.40;;;19.30;29.20;;;;;;5011554;28;21070;-58
2021/03/21 04:41:30;;;;;;;1.50;1.20;;;19.10;25.50;;;;;;5011279;28;20485;-58
2021/03/21 04:44:06;;;;;;;1.38;1.10;;;18.80;28.60;;;;;;5011414;28;20443;-58
2021/03/21 04:46:40;;;;;;;1.63;1.10;;;18.70;29.80;;;;;;4999246;28;20505;-58
2021/03/21 04:49:06;;;;;;;1.40;1.10;;;18.80;30.20;;;;;;4995570;28;20441;-58
2021/03/21 04:51:36;;;;;;;1.45;1.02;;;18.80;30.60;;;;;;4995307;28;20775;-58
2021/03/21 04:54:11;;;;;;;1.40;1.05;;;18.80;30.70;;;;;;4995127;28;20497;-58
2021/03/21 04:56:44;;;;;;;1.10;0.90;;;18.80;30.70;;;;;;4995345;28;20391;-58
2021/03/21 04:59:16;;;;;;;1.10;0.90;;;18.80;31.10;;;;;;4995339;28;20456;-58
2021/03/21 05:01:52;;;;;;;1.17;0.95;;;18.90;30.80;;;;;;4995185;28;20453;-58
2021/03/21 05:04:25;;;;;;;1.33;0.97;;;18.90;31.00;;;;;;4998115;28;20402;-58
2021/03/21 05:07:05;;;;;;;1.30;1.00;;;18.90;30.90;;;;;;4995583;28;20414;-58
2021/03/21 05:09:40;;;;;;;1.40;0.90;;;18.90;31.00;;;;;;4995061;28;20417;-59
2021/03/21 05:12:18;;;;;;;1.60;0.90;;;18.90;31.20;;;;;;4994954;28;20395;-58
2021/03/21 05:14:58;;;;;;;1.83;1.10;;;18.90;31.10;;;;;;4993743;28;20430;-58
2021/03/21 05:17:58;;;;;;;1.00;0.82;;;18.90;30.90;;;;;;4994954;28;20954;-58
2021/03/21 05:20:29;;;;;;;0.98;0.70;;;18.90;31.20;;;;;;4972767;28;20418;-58
2021/03/21 05:23:13;;;;;;;1.08;0.80;;;18.90;30.20;;;;;;4994973;28;20410;-59
2021/03/21 05:26:00;;;;;;;1.02;0.88;;;18.90;29.90;;;;;;5014300;28;20439;-59
2021/03/21 05:28:44;;;;;;;0.90;0.80;;;19.00;29.70;;;;;;5014007;28;20764;-58
2021/03/21 05:31:10;;;;;;;2.00;1.50;;;19.00;27.30;;;;;;5006305;28;20963;-58
2021/03/21 05:33:37;;;;;;;1.45;1.10;;;18.60;27.80;;;;;;5009522;28;20407;-58
2021/03/21 05:36:14;;;;;;;1.40;1.25;;;18.40;30.00;;;;;;4994486;28;20391;-58
2021/03/21 05:38:43;;;;;;;1.63;1.13;;;18.50;30.10;;;;;;4993461;28;20474;-59
2021/03/21 05:41:33;;;;;;;1.60;1.10;;;18.50;30.90;;;;;;4994268;28;20837;-58
2021/03/21 05:44:23;;;;;;;1.47;1.03;;;18.50;31.30;;;;;;4994556;28;20395;-58
2021/03/21 05:47:17;;;;;;;1.67;1.00;;;18.50;31.30;;;;;;4994371;28;20421;-58
2021/03/21 05:50:12;;;;;;;1.20;1.00;;;18.60;31.60;;;;;;4994333;28;20398;-58
2021/03/21 05:53:02;;;;;;;1.20;0.80;;;18.60;31.50;;;;;;4994219;28;20497;-58
2021/03/21 05:55:49;;;;;;;1.00;0.80;;;18.70;31.80;;;;;;4994265;28;20398;-58
2021/03/21 05:58:36;;;;;;;1.08;0.90;;;18.70;31.90;;;;;;5006185;28;20488;-58
2021/03/21 06:01:08;;;;;;;1.13;0.90;;;18.70;31.80;;;;;;5012939;28;20935;-58
2021/03/21 06:03:52;;;;;;;1.58;0.88;;;18.70;32.50;;;;;;5007193;28;20414;-58
2021/03/21 06:06:57;;;;;;;1.02;0.90;;;18.70;32.00;;;;;;4993545;28;20440;-57
2021/03/21 06:09:22;;;;;;;1.33;0.85;;;18.70;31.80;;;;;;4994036;28;20452;-58
2021/03/21 06:12:07;;;;;;;0.97;0.70;;;18.70;30.30;;;;;;4993873;28;20394;-58
2021/03/21 06:14:51;;;;;;;1.02;0.82;;;18.70;30.10;;;;;;4993811;28;20477;-57
2021/03/21 06:17:41;;;;;;;1.80;0.80;;;18.70;29.90;;;;;;4993847;28;20405;-58
2021/03/21 06:20:12;;;;;;;1.77;1.00;;;18.70;30.20;;;;;;4993465;28;20482;-58
2021/03/21 06:23:03;;;;;;;1.95;0.85;;;18.70;29.40;;;;;;4994598;28;20413;-58
2021/03/21 06:25:48;;;;;;;1.83;1.00;;;18.60;29.30;;;;;;4993636;28;20407;-58
2021/03/21 06:28:51;;;;;;;1.20;0.93;;;18.50;29.50;;;;;;4993083;28;20448;-58
2021/03/21 06:31:44;;;;;;;1.20;1.00;;;18.50;29.60;;;;;;4993221;28;20446;-58
2021/03/21 06:34:30;;;;;;;2.17;0.90;;;18.40;29.50;;;;;;4994358;28;20418;-59
2021/03/21 06:37:09;;;;;;;1.35;0.93;;;18.40;29.60;;;;;;4993285;28;20390;-58
2021/03/21 06:39:56;;;;;;;2.38;0.90;;;18.40;29.40;;;;;;5005592;28;20401;-59
2021/03/21 06:42:24;;;;;;;2.20;1.10;;;18.40;29.60;;;;;;5012018;28;20867;-61
2021/03/21 06:45:24;;;;;;;1.50;0.90;;;18.30;29.60;;;;;;4993752;28;20768;-58
2021/03/21 06:47:52;;;;;;;1.30;0.93;;;18.30;29.80;;;;;;5011489;28;20385;-58
2021/03/21 06:50:44;;;;;;;1.90;0.80;;;18.30;29.50;;;;;;5003781;28;20455;-58
2021/03/21 06:53:12;;;;;;;1.40;0.90;;;18.40;29.30;;;;;;5028049;28;21020;-58
2021/03/21 06:55:42;;;;;;;2.47;1.00;;;18.50;29.10;;;;;;5002438;28;20406;-60
2021/03/21 06:58:31;;;;;;;2.72;0.98;;;18.60;29.20;;;;;;5003788;28;20841;-60
2021/03/21 07:01:16;;;;;;;2.55;0.90;;;18.50;29.40;;;;;;4992530;28;20434;-58
2021/03/21 07:04:19;;;;;;;3.33;1.00;;;18.50;29.40;;;;;;5003218;28;20741;-58
2021/03/21 07:07:03;;;;;;;2.20;1.10;;;18.40;29.60;;;;;;5012467;28;20455;-58
2021/03/21 07:09:41;;;;;;;3.22;0.90;;;18.40;29.60;;;;;;5009430;28;20491;-58
2021/03/21 07:12:28;;;;;;;2.22;1.10;;;18.40;29.60;;;;;;5001266;28;20810;-58
2021/03/21 07:15:18;;;;;;;2.80;0.90;;;18.40;29.90;;;;;;5012424;28;20464;-60
2021/03/21 07:18:22;;;;;;;3.08;1.00;;;18.40;30.00;;;;;;4992676;28;20399;-61
2021/03/21 07:21:15;;;;;;;4.47;1.00;;;18.30;29.80;;;;;;4992547;28;20906;-58
2021/03/21 07:23:52;;;;;;;1.88;1.00;;;18.30;29.60;;;;;;5012317;28;20393;-58
2021/03/21 07:26:52;;;;;;;2.75;1.00;;;18.40;29.60;;;;;;5011702;28;20385;-59
2021/03/21 07:29:32;;;;;;;2.90;1.05;;;18.40;29.50;;;;;;5012065;28;20862;-58
2021/03/21 07:32:44;;;;;;;3.72;1.10;;;18.40;29.80;;;;;;5001700;28;20489;-58
2021/03/21 07:35:13;;;;;;;3.30;1.10;;;18.40;30.00;;;;;;4993263;28;20513;-58
2021/03/21 07:37:47;;;;;;;2.90;0.90;;;18.40;30.30;;;;;;4991923;28;20771;-58
2021/03/21 07:40:56;;;;;;;5.00;1.00;;;18.30;30.50;;;;;;4993863;28;20414;-59
2021/03/21 07:43:37;;;;;;;3.33;0.93;;;18.20;30.00;;;;;;4996804;28;20512;-58
2021/03/21 07:46:24;;;;;;;4.00;1.13;;;18.20;30.30;;;;;;5010613;28;20475;-57
2021/03/21 07:49:08;;;;;;;9.50;1.20;;;18.20;31.00;;;;;;4994738;28;20453;-58
2021/03/21 07:51:59;;;;;;;10.32;1.50;;;18.30;30.30;;;;;;5006314;28;20392;-58
2021/03/21 07:54:35;;;;;;;6.60;1.17;;;18.30;30.40;;;;;;5011407;28;20389;-58
2021/03/21 07:57:16;;;;;;;6.43;1.20;;;18.40;30.50;;;;;;5009948;28;20396;-58
2021/03/21 07:59:44;;;;;;;3.40;0.90;;;18.30;30.40;;;;;;5011616;28;20482;-58
2021/03/21 08:02:25;;;;;;;4.82;0.90;;;18.30;30.60;;;;;;5010711;28;20400;-58
2021/03/21 08:04:53;;;;;;;3.15;1.00;;;18.30;30.70;;;;;;5006443;28;20405;-58
2021/03/21 08:07:29;;;;;;;6.88;1.10;;;18.30;30.70;;;;;;5011243;28;20487;-59
2021/03/21 08:09:55;;;;;;;5.18;0.90;;;18.30;30.70;;;;;;5009781;28;20419;-58
2021/03/21 08:12:21;;;;;;;5.57;0.90;;;18.30;30.50;;;;;;5015166;28;20401;-59
2021/03/21 08:15:13;;;;;;;2.70;0.90;;;18.30;30.50;;;;;;5011184;28;20436;-58
2021/03/21 08:17:46;;;;;;;4.35;1.00;;;18.30;30.30;;;;;;5010265;28;20408;-59
2021/03/21 08:20:21;;;;;;;3.25;1.10;;;18.30;30.30;;;;;;5009752;28;20509;-58
2021/03/21 08:22:49;;;;;;;3.10;0.98;;;18.30;30.30;;;;;;5012806;28;20405;-59
2021/03/21 08:25:28;;;;;;;3.70;0.90;;;18.30;30.40;;;;;;4997920;28;20409;-58
2021/03/21 08:27:55;;;;;;;3.60;0.90;;;18.30;30.80;;;;;;4996053;28;20456;-58
2021/03/21 08:30:24;;;;;;;3.30;1.02;;;18.30;30.70;;;;;;4996579;28;20945;-58
2021/03/21 08:32:57;;;;;;;8.55;1.30;;;18.30;31.40;;;;;;4995691;28;20438;-58
2021/03/21 08:35:29;;;;;;;6.27;1.20;;;18.40;32.20;;;;;;4995684;28;20402;-58
2021/03/21 08:38:00;;;;;;;3.92;0.95;;;18.50;32.30;;;;;;5007886;28;20423;-58
2021/03/21 08:40:29;;;;;;;4.47;1.13;;;18.60;32.40;;;;;;5014680;28;20408;-58
2021/03/21 08:43:10;;;;;;;4.97;1.17;;;18.60;31.30;;;;;;5005464;28;20898;-58
2021/03/21 08:45:40;;;;;;;7.07;1.00;;;18.60;32.20;;;;;;5013492;28;20511;-59
2021/03/21 08:48:13;;;;;;;8.35;1.25;;;18.60;31.70;;;;;;5013982;28;20923;-59
2021/03/21 08:50:40;;;;;;;11.50;1.67;;;18.50;31.70;;;;;;5014879;28;20862;-58
2021/03/21 08:53:26;;;;;;;9.73;1.60;;;18.40;31.90;;;;;;5015158;28;20443;-59
2021/03/21 08:56:11;;;;;;;7.82;1.30;;;18.40;31.70;;;;;;5015000;28;20476;-58
2021/03/21 08:58:37;;;;;;;6.70;1.10;;;18.40;31.40;;;;;;5014417;28;20862;-58
2021/03/21 09:01:29;;;;;;;7.38;1.10;;;18.40;31.40;;;;;;5013529;28;20486;-58
2021/03/21 09:04:13;;;;;;;4.65;1.10;;;18.40;31.40;;;;;;5014402;28;20389;-58
2021/03/21 09:06:45;;;;;;;7.50;1.20;;;18.40;31.40;;;;;;5014326;28;20428;-62
2021/03/21 09:09:19;;;;;;;7.27;1.40;;;18.40;31.20;;;;;;5000313;28;20478;-60
2021/03/21 09:11:49;;;;;;;7.18;1.10;;;18.40;31.60;;;;;;5004591;28;20389;-61
2021/03/21 09:14:32;;;;;;;23.30;2.40;;;18.40;31.70;;;;;;5012533;28;20459;-59
2021/03/21 09:17:05;;;;;;;20.85;2.83;;;18.40;32.00;;;;;;4998094;28;20393;-62
2021/03/21 09:19:36;;;;;;;1147.28;396.73;;;18.40;32.50;;;;;;5007927;28;20410;-62
2021/03/21 09:22:31;;;;;;;1201.63;397.40;;;18.50;32.50;;;;;;5009717;28;20421;-61
2021/03/21 09:25:07;;;;;;;1006.55;312.98;;;18.60;32.90;;;;;;5005162;28;20931;-61
2021/03/21 09:27:40;;;;;;;553.28;150.45;;;18.70;32.80;;;;;;4998536;28;20402;-60
2021/03/21 09:30:31;;;;;;;927.88;325.50;;;18.70;33.30;;;;;;4998084;28;20414;-61
2021/03/21 09:33:02;;;;;;;869.72;297.40;;;18.70;34.20;;;;;;4994402;28;20520;-61
2021/03/21 09:35:53;;;;;;;1200.57;393.85;;;18.80;34.60;;;;;;5009151;28;20443;-61
2021/03/21 09:38:23;;;;;;;974.47;316.33;;;18.90;34.00;;;;;;4993893;28;20398;-60
2021/03/21 09:41:04;;;;;;;858.70;277.00;;;18.80;33.40;;;;;;4994034;28;20414;-61
2021/03/21 09:43:38;;;;;;;784.88;242.95;;;18.70;33.20;;;;;;5003170;28;20426;-62
2021/03/21 09:46:07;;;;;;;609.40;180.60;;;18.70;34.30;;;;;;4993979;28;20565;-59
2021/03/21 09:48:51;;;;;;;639.33;182.15;;;18.80;33.70;;;;;;4995077;28;20473;-62
2021/03/21 09:51:47;;;;;;;612.58;178.32;;;18.90;33.00;;;;;;5010026;28;20385;-61
2021/03/21 09:54:22;;;;;;;522.80;148.68;;;18.90;33.60;;;;;;4997995;28;20404;-61
2021/03/21 09:56:53;;;;;;;463.35;128.43;;;19.00;33.20;;;;;;4998461;28;20387;-61
2021/03/21 09:59:25;;;;;;;433.10;117.70;;;19.00;32.60;;;;;;5010039;28;20811;-61
2021/03/21 10:01:59;;;;;;;370.77;102.15;;;19.10;32.80;;;;;;5001002;28;20416;-62
2021/03/21 10:04:40;;;;;;;352.13;98.20;;;19.10;32.40;;;;;;5001310;28;20383;-61
2021/03/21 10:07:17;;;;;;;272.23;80.38;;;19.20;32.30;;;;;;5009931;28;20393;-62
2021/03/21 10:09:46;;;;;;;236.02;67.40;;;19.30;32.00;;;;;;4999837;28;20384;-61
2021/03/21 10:12:13;;;;;;;218.32;65.50;;;19.60;31.60;;;;;;5003268;28;20453;-61
2021/03/21 10:14:42;;;;;;;214.68;62.30;;;19.80;31.10;;;;;;5006789;28;20392;-59
2021/03/21 10:17:17;;;;;;;231.00;68.28;;;19.90;30.90;;;;;;4998906;28;20406;-61
2021/03/21 10:19:53;;;;;;;261.77;74.97;;;20.10;30.70;;;;;;4959820;28;20415;-62
2021/03/21 10:22:25;;;;;;;259.30;72.73;;;20.20;30.60;;;;;;5012541;28;20395;-61
2021/03/21 10:24:57;;;;;;;240.00;67.57;;;20.20;30.50;;;;;;4997447;28;20448;-61
2021/03/21 10:27:37;;;;;;;234.48;67.47;;;20.20;30.20;;;;;;4788735;28;20390;-60
2021/03/21 10:30:05;;;;;;;208.00;62.80;;;20.30;30.10;;;;;;4988767;28;20475;-61
2021/03/21 10:32:32;;;;;;;211.48;61.05;;;20.30;29.80;;;;;;4992468;28;20589;-59
2021/03/21 10:35:00;;;;;;;201.32;58.92;;;20.50;29.80;;;;;;5004377;28;20389;-59
2021/03/21 10:37:42;;;;;;;192.73;55.50;;;20.60;29.70;;;;;;5012182;28;20385;-62
2021/03/21 10:40:36;;;;;;;175.45;53.00;;;20.80;29.30;;;;;;5013261;28;20413;-62
2021/03/21 10:43:16;;;;;;;166.35;52.08;;;20.90;29.30;;;;;;4989519;28;20423;-62
2021/03/21 10:45:42;;;;;;;160.63;48.20;;;21.00;29.00;;;;;;5007733;28;20408;-62
2021/03/21 10:48:14;;;;;;;159.88;47.42;;;21.10;28.90;;;;;;5010899;28;20385;-61
2021/03/21 10:50:45;;;;;;;136.70;45.47;;;21.10;28.70;;;;;;5011513;28;20873;-62
2021/03/21 10:54:00;;;;;;;135.73;45.33;;;21.10;28.70;;;;;;5000928;28;20466;-61
2021/03/21 10:56:29;;;;;;;130.80;42.20;;;21.30;28.60;;;;;;4993237;28;20463;-58
2021/03/21 10:59:21;;;;;;;120.25;40.17;;;21.30;28.50;;;;;;5012120;28;20409;-61
2021/03/21 11:01:47;;;;;;;116.47;38.05;;;21.40;28.40;;;;;;5011391;28;20460;-60
2021/03/21 11:04:19;;;;;;;113.97;36.77;;;21.50;28.30;;;;;;5009697;28;20412;-61
2021/03/21 11:06:57;;;;;;;104.80;35.20;;;21.60;28.20;;;;;;5009699;28;20388;-61
2021/03/21 11:09:31;;;;;;;119.70;40.67;;;21.60;28.00;;;;;;5012026;28;20380;-62
2021/03/21 11:11:57;;;;;;;116.45;40.10;;;21.60;28.30;;;;;;5012374;28;20459;-61
2021/03/21 11:14:28;;;;;;;111.97;39.28;;;21.60;28.90;;;;;;5009812;28;20397;-60
2021/03/21 11:16:59;;;;;;;110.22;38.35;;;21.60;30.70;;;;;;5010480;28;20392;-61
2021/03/21 11:19:33;;;;;;;113.75;37.85;;;21.70;30.30;;;;;;5011777;28;20487;-61
2021/03/21 11:21:59;;;;;;;117.88;38.55;;;21.70;30.50;;;;;;5012490;28;20420;-61
2021/03/21 11:24:32;;;;;;;118.18;37.78;;;21.70;31.00;;;;;;5011517;28;20479;-61
2021/03/21 11:27:01;;;;;;;117.50;36.60;;;21.80;31.30;;;;;;5012508;28;20443;-62
2021/03/21 11:29:35;;;;;;;114.40;40.60;;;21.90;31.20;;;;;;5011279;28;20433;-61
2021/03/21 11:32:35;;;;;;;119.55;45.13;;;22.00;31.90;;;;;;5011869;28;20416;-61
2021/03/21 11:35:07;;;;;;;114.18;42.75;;;22.00;32.10;;;;;;5009058;28;20408;-59
2021/03/21 11:37:37;;;;;;;89.80;35.30;;;22.00;31.50;;;;;;5010599;28;20916;-60
2021/03/21 11:40:12;;;;;;;118.15;43.67;;;22.10;31.40;;;;;;4990236;28;20424;-61
2021/03/21 11:42:44;;;;;;;88.80;32.95;;;22.30;32.20;;;;;;5008404;28;20447;-61
2021/03/21 11:45:26;;;;;;;75.00;30.10;;;22.40;30.30;;;;;;5011061;28;20392;-61
2021/03/21 11:48:09;;;;;;;66.55;27.00;;;22.50;29.80;;;;;;5012202;28;20400;-61
2021/03/21 11:50:40;;;;;;;155.77;48.95;;;22.60;29.60;;;;;;5011520;28;20464;-61
2021/03/21 11:53:13;;;;;;;294.90;164.05;;;22.60;31.40;;;;;;5011341;28;20415;-60
2021/03/21 11:55:41;;;;;;;186.68;91.53;;;22.60;31.80;;;;;;5011480;28;20388;-60
2021/03/21 11:58:18;;;;;;;171.27;71.53;;;22.60;31.40;;;;;;5010986;28;20389;-59
2021/03/21 12:01:16;;;;;;;152.45;68.40;;;22.60;32.10;;;;;;5008383;28;20458;-60
2021/03/21 12:03:54;;;;;;;152.23;62.90;;;22.70;32.30;;;;;;5007600;28;20412;-61
2021/03/21 12:06:26;;;;;;;175.43;86.85;;;22.60;33.00;;;;;;5008359;28;20405;-60
2021/03/21 12:08:52;;;;;;;123.95;55.22;;;22.60;32.10;;;;;;5006847;28;20393;-62
2021/03/21 12:11:34;;;;;;;111.63;51.92;;;22.80;32.50;;;;;;5007743;28;20500;-61
2021/03/21 12:14:30;;;;;;;97.88;47.42;;;22.80;32.50;;;;;;5008492;28;20396;-61
2021/03/21 12:16:56;;;;;;;95.30;43.25;;;22.80;31.90;;;;;;5008447;28;20395;-62
2021/03/21 12:19:29;;;;;;;86.30;43.25;;;22.90;31.30;;;;;;5004688;28;20416;-60
2021/03/21 12:22:01;;;;;;;88.47;39.50;;;22.90;31.60;;;;;;5007822;28;20508;-61
2021/03/21 12:24:34;;;;;;;71.10;35.30;;;22.90;31.20;;;;;;5007385;28;20389;-62
2021/03/21 12:27:02;;;;;;;76.80;35.17;;;23.00;30.80;;;;;;5006885;28;20415;-62
2021/03/21 12:29:39;;;;;;;64.35;31.80;;;23.00;31.10;;;;;;5009960;28;20848;-62
2021/03/21 12:32:16;;;;;;;59.90;30.05;;;23.10;31.60;;;;;;5009865;28;20405;-61
2021/03/21 12:34:48;;;;;;;66.20;30.97;;;23.00;30.70;;;;;;5006185;28;20424;-62
2021/03/21 12:37:35;;;;;;;53.72;27.77;;;23.10;30.00;;;;;;5002659;28;20434;-61
2021/03/21 12:40:04;;;;;;;52.17;26.50;;;23.10;29.80;;;;;;4999716;28;20520;-60
2021/03/21 12:42:31;;;;;;;51.50;26.40;;;23.20;30.00;;;;;;5007836;28;20417;-61
2021/03/21 12:45:41;;;;;;;50.22;25.40;;;23.20;30.00;;;;;;5007195;28;20393;-63
2021/03/21 12:48:11;;;;;;;52.47;25.25;;;23.30;30.00;;;;;;4987776;28;20920;-63
2021/03/21 12:50:39;;;;;;;51.58;22.80;;;23.20;30.10;;;;;;4978266;28;20443;-63
2021/03/21 12:53:28;;;;;;;52.25;22.30;;;23.30;30.00;;;;;;4995022;28;20412;-59
2021/03/21 12:56:00;;;;;;;42.25;20.85;;;23.20;29.70;;;;;;5002284;28;21082;-63
2021/03/21 12:58:26;;;;;;;40.05;19.80;;;23.30;29.90;;;;;;5004745;28;20413;-62
2021/03/21 13:00:53;;;;;;;41.22;19.98;;;23.50;29.90;;;;;;5006327;28;20432;-61
2021/03/21 13:03:31;;;;;;;35.80;18.45;;;23.70;30.00;;;;;;5005155;28;20428;-60
2021/03/21 13:06:00;;;;;;;36.13;18.42;;;23.80;29.70;;;;;;5004500;28;20480;-59
2021/03/21 13:08:27;;;;;;;32.88;16.55;;;23.90;30.00;;;;;;5006434;28;20451;-61
2021/03/21 13:10:53;;;;;;;32.03;16.65;;;24.00;29.90;;;;;;5009888;28;20392;-59
2021/03/21 13:13:21;;;;;;;29.93;16.30;;;23.90;29.80;;;;;;5011703;28;20423;-59
2021/03/21 13:15:52;;;;;;;29.48;15.73;;;23.80;29.50;;;;;;5010745;28;20408;-63
2021/03/21 13:18:19;;;;;;;26.00;13.98;;;23.80;29.30;;;;;;5009912;28;20401;-64
2021/03/21 13:20:51;;;;;;;28.60;14.75;;;23.70;29.00;;;;;;5013391;28;20423;-62
2021/03/21 13:23:17;;;;;;;24.52;13.77;;;23.70;29.00;;;;;;5012346;28;20401;-60